Terminal Aerodrome Forecast
Issued by NWS Wakefield, VA

Home | Current Version | Previous Version | Text Only | Print | Product List | Glossary On
Versions: 1 2 3 4 5 6 7 8 9 10 11 12 13
386
FTUS41 KAKQ 261720
TAFRIC
TAF
KRIC 261720Z 2618/2718 05006KT P6SM SCT045 SCT250
     FM270100 VRB04KT P6SM SCT120
     FM271600 06008KT P6SM SCT090=

USA.gov is the U.S. government's official web portal to all federal, state and local government web resources and services.